Time;durP1;ratioP1;P1;durP2;ratioP2;P2;SDS_P1;SDS_P2;PMS_P1;PMS_P2;Temp;Humidity;BMP_temperature;BMP_pressure;BME280_temperature;BME280_humidity;BME280_pressure;Samples;Min_cycle;Max_cycle;Signal;HPM_P1;HPM_P2
2021/04/30 04:52:17;;;;;;;39.45;28.38;;;4.70;99.90;;;;;;5129259;23;20549;-68
2021/04/30 04:54:43;;;;;;;38.05;27.92;;;4.80;99.90;;;;;;4970422;28;20039;-69
2021/04/30 04:57:10;;;;;;;38.67;28.33;;;4.90;99.90;;;;;;4974882;28;20105;-69
2021/04/30 04:59:37;;;;;;;44.13;28.48;;;5.00;99.90;;;;;;4954205;28;20065;-68
2021/04/30 05:02:03;;;;;;;39.72;28.52;;;5.00;99.90;;;;;;4971731;28;20082;-68
2021/04/30 05:04:30;;;;;;;42.83;29.77;;;5.00;99.90;;;;;;4991255;23;20453;-67
2021/04/30 05:06:56;;;;;;;;;;;5.20;99.90;;;;;;4971956;28;20071;-66
2021/04/30 05:09:24;;;;;;;42.03;27.40;;;5.40;99.90;;;;;;4971256;28;19957;-67
2021/04/30 05:11:51;;;;;;;40.25;28.92;;;5.40;99.90;;;;;;4971432;28;20051;-67
2021/04/30 05:14:18;;;;;;;42.53;29.30;;;5.50;99.90;;;;;;4971617;28;20038;-68
2021/04/30 05:16:45;;;;;;;37.20;28.30;;;5.50;99.90;;;;;;4971148;28;20046;-68
2021/04/30 05:19:11;;;;;;;42.50;28.80;;;5.50;99.90;;;;;;4970913;28;20057;-67
2021/04/30 05:21:40;;;;;;;39.17;29.23;;;5.60;99.90;;;;;;4971110;28;20077;-67
2021/04/30 05:24:08;;;;;;;37.72;28.88;;;5.60;99.90;;;;;;4971445;28;20073;-67
2021/04/30 05:26:35;;;;;;;39.95;28.30;;;5.70;99.90;;;;;;4970998;28;20470;-68
2021/04/30 05:29:04;;;;;;;42.67;26.75;;;5.70;99.90;;;;;;4970981;28;20049;-68
2021/04/30 05:31:30;;;;;;;45.75;29.10;;;5.70;99.90;;;;;;4970456;28;20407;-68
2021/04/30 05:33:57;;;;;;;39.75;28.55;;;5.70;99.90;;;;;;4953616;28;20047;-68
2021/04/30 05:36:23;;;;;;;40.42;29.63;;;5.80;99.90;;;;;;4970978;28;20546;-68
2021/04/30 05:38:50;;;;;;;;;;;5.80;99.90;;;;;;4971214;28;20137;-68
2021/04/30 05:41:17;;;;;;;39.17;29.02;;;5.90;99.90;;;;;;4970905;28;20443;-68
2021/04/30 05:43:44;;;;;;;42.03;28.85;;;5.90;99.90;;;;;;4971007;28;20110;-68
2021/04/30 05:46:11;;;;;;;44.28;29.95;;;5.90;99.90;;;;;;4970941;28;20035;-68
2021/04/30 05:48:38;;;;;;;44.85;29.45;;;6.00;99.90;;;;;;4970606;28;20047;-68
2021/04/30 05:51:05;;;;;;;42.38;29.77;;;6.00;99.90;;;;;;4970472;28;20057;-68
2021/04/30 05:53:32;;;;;;;45.42;33.22;;;6.10;99.90;;;;;;4970597;28;20133;-67
2021/04/30 05:55:58;;;;;;;46.72;34.10;;;6.20;99.90;;;;;;4969618;28;20505;-67
2021/04/30 05:58:25;;;;;;;37.20;28.98;;;6.30;99.90;;;;;;4970728;28;20066;-68
2021/04/30 06:00:52;;;;;;;41.88;27.95;;;6.40;99.90;;;;;;4970915;28;20039;-67
2021/04/30 06:03:19;;;;;;;35.47;26.83;;;6.40;99.90;;;;;;4971350;28;20050;-67
2021/04/30 06:05:45;;;;;;;41.97;28.30;;;6.40;99.90;;;;;;4972090;28;20047;-68
2021/04/30 06:08:12;;;;;;;36.90;28.98;;;6.50;99.90;;;;;;4949539;28;20074;-68
2021/04/30 06:10:38;;;;;;;50.78;33.15;;;6.50;99.90;;;;;;4963694;28;20063;-68
2021/04/30 06:13:06;;;;;;;43.83;27.33;;;6.60;99.90;;;;;;4949575;28;20142;-68
2021/04/30 06:15:33;;;;;;;53.08;30.38;;;6.50;99.90;;;;;;4941570;29;20047;-67
2021/04/30 06:18:01;;;;;;;45.83;27.10;;;6.60;99.90;;;;;;4964578;28;20046;-68
2021/04/30 06:20:28;;;;;;;36.00;26.23;;;6.60;99.90;;;;;;4969848;28;20099;-69
2021/04/30 06:22:54;;;;;;;39.13;26.15;;;6.60;99.90;;;;;;4970540;28;20065;-71
2021/04/30 06:25:21;;;;;;;;;;;6.70;99.90;;;;;;4971428;28;20090;-67
2021/04/30 06:27:48;;;;;;;38.30;26.48;;;6.70;99.90;;;;;;4968155;28;19937;-66
2021/04/30 06:30:15;;;;;;;35.33;26.52;;;6.80;99.90;;;;;;4976518;28;20066;-67
2021/04/30 06:32:43;;;;;;;39.63;27.58;;;6.90;99.90;;;;;;4974525;28;20058;-67
2021/04/30 06:35:12;;;;;;;33.67;26.60;;;7.10;99.90;;;;;;4961960;28;20499;-66
2021/04/30 06:37:39;;;;;;;36.25;27.27;;;7.30;99.90;;;;;;4964207;28;20495;-66
2021/04/30 06:40:07;;;;;;;35.50;25.70;;;7.40;99.90;;;;;;4973774;28;20135;-67
2021/04/30 06:42:34;;;;;;;35.45;25.70;;;7.70;99.90;;;;;;4973892;28;20054;-68
2021/04/30 06:45:00;;;;;;;35.05;24.48;;;7.80;99.90;;;;;;4976650;28;20053;-67
2021/04/30 06:47:28;;;;;;;32.63;23.55;;;8.10;99.90;;;;;;4976398;28;20047;-69
2021/04/30 06:49:55;;;;;;;30.45;23.00;;;8.30;99.90;;;;;;4979488;28;20046;-68
2021/04/30 06:52:22;;;;;;;32.13;23.52;;;8.60;99.90;;;;;;4974416;28;20031;-67
2021/04/30 06:54:49;;;;;;;42.08;23.92;;;8.60;99.90;;;;;;4956707;28;20502;-68
2021/04/30 06:57:17;;;;;;;26.80;22.98;;;8.40;99.90;;;;;;4974726;28;20035;-69
2021/04/30 06:59:44;;;;;;;34.40;23.05;;;8.60;99.90;;;;;;4956962;28;20051;-68
2021/04/30 07:02:10;;;;;;;28.73;22.67;;;8.40;99.90;;;;;;4974634;28;20047;-69
2021/04/30 07:04:37;;;;;;;33.20;22.30;;;8.70;99.90;;;;;;4956718;28;20046;-68
2021/04/30 07:07:04;;;;;;;31.70;22.25;;;8.90;99.90;;;;;;4973931;28;20066;-68
2021/04/30 07:09:32;;;;;;;34.20;21.65;;;9.10;99.90;;;;;;4978549;28;20510;-68
2021/04/30 07:11:59;;;;;;;31.02;21.50;;;9.20;99.90;;;;;;4978075;28;20193;-68
2021/04/30 07:14:25;;;;;;;29.98;22.10;;;9.10;99.90;;;;;;4976848;28;20055;-68
2021/04/30 07:16:54;;;;;;;32.67;21.95;;;9.50;99.90;;;;;;4976900;28;20212;-69
2021/04/30 07:19:21;;;;;;;28.98;21.58;;;9.50;99.90;;;;;;4957356;28;20062;-67
2021/04/30 07:25:09;;;;;;;31.63;22.00;;;9.50;99.90;;;;;;4905993;28;20139;-68
2021/04/30 07:27:36;;;;;;;32.80;21.13;;;9.60;99.90;;;;;;4952809;29;20154;-68
2021/04/30 07:30:03;;;;;;;27.35;20.48;;;9.70;99.90;;;;;;4953911;29;20051;-68
2021/04/30 07:32:30;;;;;;;31.80;22.25;;;9.40;99.90;;;;;;4971248;28;20145;-68
2021/04/30 07:34:56;;;;;;;33.35;22.42;;;9.40;99.90;;;;;;4973028;28;20121;-68
2021/04/30 07:37:23;;;;;;;29.85;22.65;;;9.50;99.90;;;;;;4973122;28;20133;-68
2021/04/30 07:39:50;;;;;;;25.55;20.42;;;9.50;99.90;;;;;;4988568;28;20043;-68
2021/04/30 07:42:17;;;;;;;30.10;20.73;;;9.60;99.90;;;;;;4971734;28;20160;-68
2021/04/30 07:44:44;;;;;;;28.17;21.08;;;9.50;99.90;;;;;;4974443;28;20051;-68
2021/04/30 07:47:10;;;;;;;28.30;20.90;;;9.50;99.90;;;;;;4964346;28;20043;-67
2021/04/30 07:49:37;;;;;;;27.00;20.42;;;9.50;99.90;;;;;;4953903;29;20503;-67
2021/04/30 07:52:04;;;;;;;28.15;21.05;;;9.40;99.90;;;;;;4950280;28;20051;-68
2021/04/30 07:54:30;;;;;;;30.08;20.50;;;9.50;99.90;;;;;;4972605;28;20043;-67
2021/04/30 07:56:57;;;;;;;28.88;20.23;;;9.50;99.90;;;;;;4971380;28;20142;-68
2021/04/30 07:59:24;;;;;;;36.10;23.13;;;9.70;99.90;;;;;;4972535;28;20169;-67
2021/04/30 08:01:51;;;;;;;32.85;21.85;;;9.90;99.90;;;;;;4974996;28;20058;-67
2021/04/30 08:04:17;;;;;;;25.92;20.10;;;10.00;99.90;;;;;;4955586;28;20113;-68
2021/04/30 08:06:44;;;;;;;;;;;10.40;99.90;;;;;;4973488;28;20047;-67
2021/04/30 08:09:11;;;;;;;24.60;19.60;;;10.50;99.90;;;;;;4972273;28;20458;-68
2021/04/30 08:11:38;;;;;;;26.83;19.23;;;10.70;99.90;;;;;;4972745;28;20042;-69
2021/04/30 08:14:07;;;;;;;30.73;18.77;;;10.70;99.90;;;;;;4972800;28;20143;-68
2021/04/30 08:16:34;;;;;;;23.15;18.63;;;10.80;99.90;;;;;;4971886;28;20123;-68
2021/04/30 08:19:01;;;;;;;23.17;18.48;;;10.70;99.90;;;;;;4974702;28;20042;-68
2021/04/30 08:21:27;;;;;;;;;;;11.00;99.90;;;;;;4972802;28;20245;-67
2021/04/30 08:23:54;;;;;;;26.92;19.38;;;10.90;99.90;;;;;;4972245;28;19977;-68
2021/04/30 08:26:21;;;;;;;28.48;19.15;;;10.90;99.90;;;;;;4972205;28;20070;-68
2021/04/30 08:28:48;;;;;;;28.55;19.27;;;10.80;99.90;;;;;;4975549;28;20049;-68
2021/04/30 08:31:14;;;;;;;23.50;18.60;;;10.70;99.90;;;;;;4971939;28;20051;-68
2021/04/30 08:33:42;;;;;;;23.98;18.98;;;10.70;99.90;;;;;;4971767;28;20121;-68
2021/04/30 08:36:09;;;;;;;23.75;18.63;;;10.90;99.90;;;;;;4974824;28;20035;-68
2021/04/30 08:38:36;;;;;;;20.23;17.33;;;10.90;99.90;;;;;;4972436;28;20059;-68
2021/04/30 08:41:04;;;;;;;27.00;18.90;;;11.40;99.90;;;;;;4972180;28;20094;-69
2021/04/30 08:43:30;;;;;;;26.92;20.33;;;11.10;99.90;;;;;;4971538;28;20126;-68
2021/04/30 08:45:57;;;;;;;28.02;19.50;;;11.20;99.90;;;;;;4972032;28;20046;-68
2021/04/30 08:48:25;;;;;;;27.02;18.52;;;11.00;99.90;;;;;;4971645;28;20071;-69
2021/04/30 08:50:54;;;;;;;24.95;18.30;;;10.80;99.90;;;;;;4972180;28;20430;-68
2021/04/30 08:53:21;;;;;;;25.88;18.75;;;10.80;99.90;;;;;;4971409;28;20054;-68
2021/04/30 08:55:50;;;;;;;25.58;18.73;;;11.10;99.90;;;;;;4973780;28;20047;-67
2021/04/30 08:58:22;;;;;;;23.45;18.67;;;11.40;99.90;;;;;;4972022;28;20446;-67
2021/04/30 09:00:49;;;;;;;21.63;17.83;;;11.10;99.90;;;;;;4971343;28;20078;-69
2021/04/30 09:03:16;;;;;;;23.70;18.15;;;11.10;99.90;;;;;;4971180;28;20092;-69
2021/04/30 09:05:47;;;;;;;24.70;19.08;;;10.90;99.90;;;;;;4971610;28;20046;-67
2021/04/30 09:08:16;;;;;;;22.58;17.88;;;11.10;99.90;;;;;;4970802;28;20446;-69
2021/04/30 09:10:48;;;;;;;29.40;18.60;;;10.90;99.90;;;;;;4953718;28;20054;-69
2021/04/30 09:13:17;;;;;;;23.05;18.15;;;11.00;99.90;;;;;;4971367;28;20069;-70
2021/04/30 09:15:46;;;;;;;23.00;19.05;;;10.80;99.90;;;;;;4971888;28;20190;-69
2021/04/30 09:18:20;;;;;;;25.65;18.92;;;10.70;99.90;;;;;;4973462;28;20073;-69
2021/04/30 09:20:48;;;;;;;21.92;17.98;;;10.70;99.90;;;;;;4965805;28;20078;-70
2021/04/30 09:23:33;;;;;;;23.65;18.00;;;10.60;99.90;;;;;;4974850;28;20051;-69
2021/04/30 09:26:00;;;;;;;24.33;17.05;;;10.80;99.90;;;;;;4969958;28;20055;-69
2021/04/30 09:28:27;;;;;;;24.25;16.10;;;10.60;99.90;;;;;;4970518;28;20503;-67
2021/04/30 09:30:54;;;;;;;22.77;17.27;;;10.80;99.90;;;;;;4953765;28;20053;-70
2021/04/30 09:33:22;;;;;;;25.10;19.85;;;11.00;99.90;;;;;;4960118;28;20047;-69
2021/04/30 09:35:50;;;;;;;24.38;20.95;;;11.00;99.90;;;;;;4967024;28;20042;-68
2021/04/30 09:38:19;;;;;;;29.65;21.27;;;10.40;99.90;;;;;;4958774;28;20137;-68
2021/04/30 09:40:47;;;;;;;25.30;20.25;;;10.70;99.90;;;;;;4971946;28;20134;-68
2021/04/30 09:43:15;;;;;;;27.10;19.33;;;10.70;99.90;;;;;;4982397;28;20070;-68
2021/04/30 09:45:44;;;;;;;25.30;18.95;;;11.10;99.90;;;;;;4977719;28;20050;-68
2021/04/30 09:48:12;;;;;;;28.88;20.25;;;11.00;99.90;;;;;;4982154;28;20497;-68
2021/04/30 09:50:41;;;;;;;26.00;20.27;;;10.70;99.90;;;;;;4961832;28;20058;-68
2021/04/30 09:53:09;;;;;;;26.02;19.60;;;10.80;99.90;;;;;;4977589;28;20038;-67
2021/04/30 09:55:44;;;;;;;27.17;19.30;;;10.90;99.90;;;;;;4978939;28;20050;-68
2021/04/30 09:58:14;;;;;;;28.33;20.77;;;10.70;99.90;;;;;;4972178;28;20047;-69
2021/04/30 10:00:41;;;;;;;32.28;21.52;;;10.50;99.90;;;;;;4971261;28;20125;-69
2021/04/30 10:03:15;;;;;;;26.92;21.00;;;10.60;99.90;;;;;;4985645;28;20077;-68
2021/04/30 10:06:04;;;;;;;27.27;20.92;;;10.60;99.90;;;;;;4995393;28;20530;-67
2021/04/30 10:08:33;;;;;;;25.60;20.95;;;10.70;99.90;;;;;;4969995;28;20466;-69
2021/04/30 10:11:00;;;;;;;29.40;20.50;;;10.90;99.90;;;;;;4983222;28;20046;-67
2021/04/30 10:13:29;;;;;;;28.13;21.17;;;10.90;99.90;;;;;;4957506;28;20046;-68
2021/04/30 10:15:56;;;;;;;35.40;22.83;;;10.90;99.90;;;;;;4975310;28;20038;-69
2021/04/30 10:18:22;;;;;;;30.00;22.35;;;10.90;99.90;;;;;;4969397;28;20516;-68
2021/04/30 10:20:49;;;;;;;27.75;21.60;;;10.80;99.90;;;;;;4951512;28;20077;-68
2021/04/30 10:23:19;;;;;;;33.65;21.60;;;10.80;99.90;;;;;;4959577;28;20132;-69
2021/04/30 10:25:49;;;;;;;27.50;20.70;;;10.90;99.90;;;;;;4974260;28;20407;-69
2021/04/30 10:28:20;;;;;;;27.85;21.00;;;10.60;99.90;;;;;;4973993;28;20061;-69
2021/04/30 10:30:54;;;;;;;32.10;22.63;;;10.80;99.90;;;;;;4975057;28;20122;-71
2021/04/30 10:33:27;;;;;;;27.88;20.90;;;10.80;99.90;;;;;;4974865;28;20050;-69
2021/04/30 10:36:00;;;;;;;25.90;19.80;;;10.70;99.90;;;;;;4972182;28;20161;-68
2021/04/30 10:38:29;;;;;;;27.63;21.23;;;10.80;99.90;;;;;;4978031;28;20050;-68
2021/04/30 10:41:01;;;;;;;26.90;21.88;;;11.00;99.90;;;;;;4974288;28;20285;-68
2021/04/30 10:43:28;;;;;;;26.90;20.10;;;11.50;99.90;;;;;;4974097;28;20137;-68
2021/04/30 10:46:04;;;;;;;24.73;18.95;;;11.50;99.90;;;;;;4974130;28;20081;-69
2021/04/30 10:48:31;;;;;;;25.30;20.63;;;11.40;99.90;;;;;;4975988;28;20112;-69
2021/04/30 10:51:13;;;;;;;38.22;22.00;;;11.30;99.90;;;;;;4969138;28;20058;-69
2021/04/30 10:53:41;;;;;;;28.83;20.83;;;11.20;99.90;;;;;;4973279;28;20522;-69
2021/04/30 10:56:28;;;;;;;27.15;20.13;;;11.50;99.90;;;;;;4972853;28;20097;-69
2021/04/30 10:58:55;;;;;;;24.92;19.65;;;12.00;99.90;;;;;;4974018;28;20057;-68
2021/04/30 11:01:28;;;;;;;23.88;19.98;;;11.90;99.90;;;;;;4993272;28;20125;-68
2021/04/30 11:04:19;;;;;;;25.83;19.65;;;11.90;99.90;;;;;;4983089;23;20149;-70
2021/04/30 11:06:51;;;;;;;29.75;20.48;;;12.30;99.90;;;;;;4955172;28;20042;-68
2021/04/30 11:09:32;;;;;;;25.15;18.73;;;12.10;99.90;;;;;;4966728;28;20051;-69
2021/04/30 11:12:21;;;;;;;25.25;19.95;;;12.20;99.90;;;;;;4972752;28;20165;-69
2021/04/30 11:15:07;;;;;;;22.00;18.25;;;12.20;99.90;;;;;;4967651;28;20122;-69
2021/04/30 11:17:49;;;;;;;25.25;19.23;;;12.30;99.90;;;;;;4966750;28;20043;-69
2021/04/30 11:20:20;;;;;;;22.45;18.20;;;12.10;99.90;;;;;;4959593;28;20046;-68
2021/04/30 11:23:11;;;;;;;23.98;17.20;;;12.50;99.90;;;;;;4961044;28;20055;-70
2021/04/30 11:26:07;;;;;;;19.73;17.63;;;12.90;99.90;;;;;;4970663;28;20506;-68
2021/04/30 11:29:09;;;;;;;25.35;18.00;;;12.60;99.90;;;;;;4957359;28;20054;-68
2021/04/30 11:31:40;;;;;;;21.08;18.42;;;12.50;99.90;;;;;;4963041;28;20039;-68
2021/04/30 11:34:22;;;;;;;22.52;18.42;;;12.90;99.90;;;;;;4973279;28;20061;-68
2021/04/30 11:36:57;;;;;;;20.88;17.45;;;12.80;99.90;;;;;;4972157;28;20459;-69
2021/04/30 11:39:29;;;;;;;23.48;18.45;;;12.90;99.90;;;;;;4971895;28;20513;-69
2021/04/30 11:42:05;;;;;;;20.60;16.55;;;12.60;99.90;;;;;;4970970;28;20075;-69
2021/04/30 11:44:32;;;;;;;22.50;16.05;;;13.30;99.90;;;;;;4951935;28;20141;-69
2021/04/30 11:47:04;;;;;;;22.30;16.08;;;13.50;99.90;;;;;;4963702;28;20073;-70
2021/04/30 11:49:33;;;;;;;20.75;16.88;;;13.40;99.90;;;;;;4964867;28;20142;-69
2021/04/30 11:52:01;;;;;;;19.58;16.15;;;13.70;99.90;;;;;;4967888;28;20046;-71
2021/04/30 11:54:31;;;;;;;20.70;16.52;;;14.20;99.90;;;;;;4971983;28;20038;-69
2021/04/30 11:56:59;;;;;;;25.38;17.05;;;14.40;99.90;;;;;;4954113;28;20325;-69
2021/04/30 11:59:26;;;;;;;19.42;16.67;;;14.50;99.90;;;;;;4966157;28;20035;-69
2021/04/30 12:01:59;;;;;;;20.58;16.38;;;13.70;99.90;;;;;;4953547;29;20079;-69
2021/04/30 12:04:39;;;;;;;22.80;18.05;;;13.60;99.90;;;;;;4957773;28;20459;-69
2021/04/30 12:07:06;;;;;;;22.38;18.13;;;13.40;99.90;;;;;;4952304;28;20051;-70
2021/04/30 12:09:33;;;;;;;23.50;16.70;;;13.40;99.90;;;;;;4966635;28;20055;-71
2021/04/30 12:12:20;;;;;;;19.20;17.20;;;13.00;99.90;;;;;;4962135;28;20042;-69
2021/04/30 12:14:50;;;;;;;18.67;16.73;;;13.60;99.90;;;;;;4967839;28;20045;-69
2021/04/30 12:17:24;;;;;;;23.17;16.85;;;13.70;99.90;;;;;;4959764;28;20466;-75
2021/04/30 12:20:06;;;;;;;19.73;15.73;;;14.00;99.90;;;;;;4972273;28;20050;-68
2021/04/30 12:22:33;;;;;;;18.08;15.90;;;14.20;99.90;;;;;;4968664;28;20047;-69
2021/04/30 12:25:19;;;;;;;18.25;16.27;;;14.30;99.90;;;;;;4963492;28;20125;-69
2021/04/30 12:27:46;;;;;;;20.52;17.00;;;14.20;99.90;;;;;;4958685;28;20059;-70
2021/04/30 12:30:13;;;;;;;18.23;16.27;;;14.00;99.90;;;;;;4967163;28;20053;-70
2021/04/30 12:32:45;;;;;;;18.83;16.40;;;13.90;99.90;;;;;;4967779;28;20375;-69
2021/04/30 12:35:13;;;;;;;23.67;16.98;;;14.30;99.90;;;;;;4967363;28;20141;-70
2021/04/30 12:37:39;;;;;;;19.98;16.35;;;13.90;99.90;;;;;;4968744;28;20045;-70
2021/04/30 12:40:07;;;;;;;19.05;16.85;;;13.00;99.90;;;;;;4970561;28;20049;-70
2021/04/30 12:42:46;;;;;;;19.33;16.92;;;13.00;99.90;;;;;;4971784;28;20058;-71
2021/04/30 12:45:14;;;;;;;19.83;17.48;;;13.50;99.90;;;;;;4958219;28;20557;-70
2021/04/30 12:47:41;;;;;;;21.40;17.88;;;13.40;99.90;;;;;;4972631;28;20514;-70
2021/04/30 12:50:10;;;;;;;21.10;16.70;;;13.50;99.90;;;;;;4969851;28;20133;-71
2021/04/30 12:52:39;;;;;;;21.73;17.63;;;13.50;99.90;;;;;;4971395;28;20061;-70
2021/04/30 12:55:28;;;;;;;22.33;19.17;;;13.20;99.90;;;;;;4962788;28;20039;-70
2021/04/30 12:58:10;;;;;;;22.92;18.35;;;13.80;99.90;;;;;;4946753;28;20093;-71
2021/04/30 13:01:05;;;;;;;18.00;16.10;;;14.20;99.90;;;;;;4971091;28;20043;-72
2021/04/30 13:03:44;;;;;;;19.15;16.63;;;14.10;99.90;;;;;;4971054;28;21814;-71
2021/04/30 13:06:13;;;;;;;21.50;17.33;;;13.60;99.90;;;;;;4961656;28;20045;-70
2021/04/30 13:08:43;;;;;;;22.80;17.17;;;13.70;99.90;;;;;;4965776;28;20045;-70
2021/04/30 13:11:14;;;;;;;21.10;17.17;;;13.50;99.90;;;;;;4970797;28;20043;-70
2021/04/30 13:13:57;;;;;;;29.17;19.33;;;13.40;99.90;;;;;;4968065;28;20078;-70
2021/04/30 13:16:37;;;;;;;20.45;16.75;;;13.50;99.90;;;;;;4948061;28;20568;-71
2021/04/30 13:19:12;;;;;;;20.38;16.75;;;13.50;99.90;;;;;;4969383;28;20050;-71
2021/04/30 13:21:41;;;;;;;19.83;16.63;;;13.70;99.90;;;;;;4965347;28;20046;-70
2021/04/30 13:24:18;;;;;;;18.90;16.00;;;13.60;99.90;;;;;;4966122;28;20577;-71
2021/04/30 13:27:01;;;;;;;20.75;15.60;;;13.40;99.90;;;;;;4968234;28;20512;-71
2021/04/30 13:29:30;;;;;;;21.30;15.95;;;13.40;99.90;;;;;;4969264;28;20241;-69
2021/04/30 13:32:12;;;;;;;17.00;15.18;;;13.90;99.90;;;;;;4953486;28;20129;-69
2021/04/30 13:34:45;;;;;;;19.30;15.73;;;13.60;99.90;;;;;;4970990;28;20414;-70
2021/04/30 13:37:17;;;;;;;20.63;15.00;;;13.50;99.90;;;;;;4970090;28;20047;-70
2021/04/30 13:39:47;;;;;;;18.98;16.30;;;13.20;99.90;;;;;;4969894;28;20130;-70
2021/04/30 13:42:20;;;;;;;21.55;16.40;;;13.30;99.90;;;;;;4970042;28;20101;-69
2021/04/30 13:44:53;;;;;;;17.30;15.45;;;13.30;99.90;;;;;;4970699;28;20045;-71
2021/04/30 13:47:19;;;;;;;18.13;14.45;;;13.40;99.90;;;;;;4970548;28;20446;-70
2021/04/30 13:49:49;;;;;;;19.70;15.77;;;13.10;99.90;;;;;;4970034;28;20042;-69
2021/04/30 13:52:16;;;;;;;18.20;15.07;;;12.90;99.90;;;;;;4968698;28;20426;-71
2021/04/30 13:54:44;;;;;;;19.58;15.57;;;12.80;99.90;;;;;;4969456;28;20054;-71
2021/04/30 13:57:11;;;;;;;17.13;15.15;;;12.90;99.90;;;;;;4965722;28;20109;-70
2021/04/30 13:59:39;;;;;;;19.55;16.25;;;12.80;99.90;;;;;;4966832;28;20498;-72
2021/04/30 14:02:07;;;;;;;18.77;14.93;;;12.90;99.90;;;;;;4967311;28;20173;-71
2021/04/30 14:04:34;;;;;;;16.20;14.43;;;13.10;99.90;;;;;;4966518;28;20088;-71
2021/04/30 14:07:01;;;;;;;19.48;15.80;;;13.10;99.90;;;;;;4967532;28;20030;-69
2021/04/30 14:09:28;;;;;;;;;;;12.90;99.90;;;;;;4968186;28;20386;-70
2021/04/30 14:11:56;;;;;;;21.08;15.80;;;12.70;99.90;;;;;;4966442;28;19926;-71
2021/04/30 14:14:23;;;;;;;20.90;15.50;;;13.10;99.90;;;;;;4968989;28;20089;-70
2021/04/30 14:16:50;;;;;;;17.02;14.90;;;12.80;99.90;;;;;;4963697;28;20081;-70
2021/04/30 14:19:16;;;;;;;;;;;12.70;99.90;;;;;;4970041;28;20050;-71
2021/04/30 14:21:43;;;;;;;17.50;14.45;;;12.80;99.90;;;;;;4966779;28;20234;-70
2021/04/30 14:24:10;;;;;;;;;;;12.70;99.90;;;;;;4966981;28;20494;-71
2021/04/30 14:26:39;;;;;;;17.60;14.40;;;12.80;99.90;;;;;;4964461;28;19925;-71
2021/04/30 14:29:07;;;;;;;16.15;14.18;;;12.90;99.90;;;;;;4966660;28;20113;-71
2021/04/30 14:31:34;;;;;;;17.65;14.07;;;13.20;99.90;;;;;;4964553;28;20125;-71
2021/04/30 14:34:01;;;;;;;;;;;13.50;99.90;;;;;;4966728;28;20388;-71
2021/04/30 14:36:28;;;;;;;19.65;15.63;;;13.70;99.90;;;;;;4968161;28;19922;-71
2021/04/30 14:38:55;;;;;;;18.83;16.63;;;13.40;99.90;;;;;;4967828;28;20046;-70
2021/04/30 14:41:23;;;;;;;18.15;14.98;;;13.40;99.90;;;;;;4963029;28;20051;-69
2021/04/30 14:43:50;;;;;;;18.60;16.05;;;13.20;99.90;;;;;;4970231;28;20049;-70
2021/04/30 14:46:18;;;;;;;17.85;15.38;;;13.10;99.90;;;;;;4964330;28;20039;-70
2021/04/30 14:48:44;;;;;;;20.27;14.40;;;13.10;99.90;;;;;;4951660;28;20086;-70
2021/04/30 14:51:11;;;;;;;17.60;13.82;;;13.20;99.90;;;;;;4954654;28;20047;-72
2021/04/30 14:53:38;;;;;;;16.88;15.05;;;13.10;99.90;;;;;;4955496;28;20047;-72
2021/04/30 14:56:05;;;;;;;20.63;17.00;;;13.10;99.90;;;;;;4969571;28;20047;-71
2021/04/30 14:58:32;;;;;;;17.92;16.02;;;13.20;99.90;;;;;;4971607;28;20077;-69
2021/04/30 15:00:58;;;;;;;17.77;15.00;;;13.10;99.90;;;;;;4971506;28;20046;-70
2021/04/30 15:03:26;;;;;;;21.42;15.75;;;12.90;99.90;;;;;;4972230;28;20045;-70
2021/04/30 15:05:54;;;;;;;16.92;15.00;;;12.70;99.90;;;;;;4970803;28;20325;-70
2021/04/30 15:08:22;;;;;;;14.23;12.73;;;12.90;99.90;;;;;;4966626;28;20050;-69
2021/04/30 15:10:51;;;;;;;13.70;12.27;;;13.10;99.90;;;;;;4973095;28;20078;-70
2021/04/30 15:13:18;;;;;;;18.05;12.98;;;13.10;99.90;;;;;;4956158;28;20097;-70
2021/04/30 15:15:45;;;;;;;13.60;11.68;;;13.20;99.90;;;;;;4972708;28;20491;-70
2021/04/30 15:18:12;;;;;;;12.75;10.18;;;13.20;99.90;;;;;;4965586;28;20058;-72
2021/04/30 15:20:40;;;;;;;13.40;10.27;;;13.10;99.90;;;;;;4970062;28;20471;-69
2021/04/30 15:23:07;;;;;;;12.05;10.75;;;12.90;99.90;;;;;;4967312;28;20053;-69
2021/04/30 15:25:36;;;;;;;13.57;12.18;;;13.10;99.90;;;;;;4971291;28;20438;-69
2021/04/30 15:28:04;;;;;;;14.63;12.10;;;13.00;99.90;;;;;;4969634;28;20098;-69
2021/04/30 15:30:31;;;;;;;11.98;10.10;;;12.80;99.90;;;;;;4970566;28;20109;-69
2021/04/30 15:32:58;;;;;;;12.35;10.85;;;12.90;99.90;;;;;;4953799;29;20567;-69
2021/04/30 15:35:25;;;;;;;;;;;13.20;99.90;;;;;;4954158;29;20039;-70
2021/04/30 15:37:52;;;;;;;9.05;8.15;;;13.20;99.90;;;;;;4953911;29;19922;-68
2021/04/30 15:40:22;;;;;;;11.23;9.52;;;13.30;99.90;;;;;;4936697;29;20051;-69
2021/04/30 15:43:19;;;;;;;9.13;8.00;;;13.40;99.90;;;;;;4953815;29;20043;-71
2021/04/30 15:45:48;;;;;;;12.50;8.38;;;13.40;99.90;;;;;;4971315;28;20050;-68
2021/04/30 15:48:15;;;;;;;9.45;7.53;;;13.10;99.90;;;;;;4972190;28;20046;-68
2021/04/30 15:50:41;;;;;;;9.15;8.13;;;13.10;99.90;;;;;;4989940;28;20082;-69
2021/04/30 15:53:09;;;;;;;9.63;8.50;;;13.10;99.90;;;;;;4988914;28;20102;-68
2021/04/30 15:55:35;;;;;;;10.27;8.52;;;12.90;99.90;;;;;;4990625;28;20027;-70
2021/04/30 15:58:02;;;;;;;9.60;8.70;;;12.90;99.90;;;;;;4965895;28;20046;-69
2021/04/30 16:00:29;;;;;;;12.20;9.80;;;12.80;99.90;;;;;;4973511;28;20059;-69
2021/04/30 16:02:55;;;;;;;11.68;8.77;;;12.70;99.90;;;;;;4955615;28;20054;-69
2021/04/30 16:05:22;;;;;;;8.55;7.05;;;12.90;99.90;;;;;;4955565;28;20604;-69
2021/04/30 16:07:48;;;;;;;;;;;13.10;99.90;;;;;;4973596;28;20122;-69
2021/04/30 16:10:17;;;;;;;9.50;7.72;;;13.40;99.90;;;;;;4955421;28;19976;-69
2021/04/30 16:12:43;;;;;;;8.18;7.38;;;13.30;99.90;;;;;;4974890;28;20059;-67
2021/04/30 16:15:12;;;;;;;14.75;8.18;;;13.60;99.90;;;;;;4981426;28;20043;-68
2021/04/30 16:17:38;;;;;;;9.55;8.65;;;13.40;99.90;;;;;;4981097;28;20142;-68
2021/04/30 16:20:07;;;;;;;9.98;7.47;;;13.50;99.90;;;;;;4978381;28;20047;-68
2021/04/30 16:22:34;;;;;;;9.15;8.25;;;13.40;99.90;;;;;;4963249;28;20074;-69
2021/04/30 16:25:01;;;;;;;11.50;8.10;;;13.00;99.90;;;;;;4953952;29;20058;-69
2021/04/30 16:27:28;;;;;;;11.55;9.55;;;13.10;99.90;;;;;;4935970;29;20046;-69
2021/04/30 16:29:55;;;;;;;11.68;8.63;;;13.10;99.90;;;;;;4953328;29;20047;-69
2021/04/30 16:32:22;;;;;;;8.82;7.90;;;13.30;99.90;;;;;;4953199;29;20555;-69
2021/04/30 16:34:49;;;;;;;9.55;8.25;;;13.00;99.90;;;;;;4936131;29;20420;-71
2021/04/30 16:37:16;;;;;;;9.48;8.48;;;12.90;99.90;;;;;;4953032;29;20039;-69
2021/04/30 16:39:43;;;;;;;9.60;8.70;;;12.70;99.90;;;;;;4953471;29;20132;-70
2021/04/30 16:42:10;;;;;;;10.85;7.47;;;12.90;99.90;;;;;;4953418;29;20079;-70
2021/04/30 16:44:37;;;;;;;8.70;6.85;;;13.00;99.90;;;;;;4953263;29;20142;-68
2021/04/30 16:47:03;;;;;;;8.38;7.53;;;12.90;99.90;;;;;;4953281;29;20116;-69
2021/04/30 16:49:30;;;;;;;8.90;7.30;;;12.80;99.90;;;;;;4953328;29;20526;-69
2021/04/30 16:51:56;;;;;;;7.65;6.68;;;12.90;99.90;;;;;;4953256;29;20543;-69
2021/04/30 16:54:25;;;;;;;7.95;6.85;;;12.90;99.90;;;;;;4952574;29;20088;-69
2021/04/30 16:56:52;;;;;;;9.82;8.07;;;13.00;99.90;;;;;;4952433;29;20055;-69
2021/04/30 16:59:20;;;;;;;13.02;10.48;;;12.90;99.90;;;;;;4953160;29;20046;-69
2021/04/30 17:01:47;;;;;;;16.63;11.82;;;12.60;99.90;;;;;;4952171;29;20046;-69
2021/04/30 17:04:14;;;;;;;15.15;11.93;;;12.60;99.90;;;;;;4987261;23;20046;-67
2021/04/30 17:06:41;;;;;;;12.15;10.85;;;12.40;99.90;;;;;;5009797;28;20042;-68
2021/04/30 17:09:07;;;;;;;13.23;11.77;;;12.30;99.90;;;;;;5010624;28;20066;-67
2021/04/30 17:11:34;;;;;;;13.07;10.80;;;12.40;99.90;;;;;;5010482;28;20057;-67
2021/04/30 17:14:00;;;;;;;14.27;11.68;;;12.30;99.90;;;;;;5007856;28;20042;-68
2021/04/30 17:16:27;;;;;;;13.95;12.40;;;12.30;99.90;;;;;;5009208;28;20145;-68
2021/04/30 17:18:55;;;;;;;16.48;12.23;;;12.20;99.90;;;;;;5010618;28;20053;-68
2021/04/30 17:21:22;;;;;;;16.85;12.05;;;12.10;99.90;;;;;;5010045;28;20584;-69
2021/04/30 17:23:50;;;;;;;18.60;13.07;;;12.00;99.90;;;;;;5010084;28;20525;-68
2021/04/30 17:26:17;;;;;;;19.02;14.02;;;12.00;99.90;;;;;;5010418;28;20592;-68
2021/04/30 17:28:45;;;;;;;16.48;13.70;;;12.00;99.90;;;;;;5010196;28;20084;-69
2021/04/30 17:31:12;;;;;;;27.55;23.10;;;11.90;99.90;;;;;;5010542;28;20038;-68
2021/04/30 17:33:39;;;;;;;23.45;15.35;;;12.00;99.90;;;;;;5009870;28;20053;-69
2021/04/30 17:36:09;;;;;;;17.55;14.30;;;12.10;99.90;;;;;;5008555;28;20061;-69
2021/04/30 17:38:38;;;;;;;19.92;15.40;;;12.00;99.90;;;;;;5010168;28;20509;-69
2021/04/30 17:41:05;;;;;;;20.25;17.05;;;11.90;99.90;;;;;;5010235;28;20045;-68